jeudi 17 avril 2014

ALERTE SPOTTING 17/04/14

321 EC-JGS Iberia (nouvelles couleurs)
   dpt  IB3417  07h55

CNJ D-CAAA
   arv DCS701  09h30

332 F-GZCI Air France
   dpt AF373Y 13h00

320 F-GHQE Air Corsica (blanc avec titre)
   XK4517/XK4514   20h20/21h25

Manque les prévisions de : certains AB / AH / AZ / BA / BE / IB / KM / TP / TU
*** Heures en Local Time **
Prévisions matinales soumises à modifications de dernières minute.
 Voir le log du mois pour la version 'définitive' de la journée: 
 http://www.airkalo.com/ORLYAVIATION/Logdumois.html

le TAF de la journée:


METAR: LFPO 170230Z VRB03KT CAVOK 07/M01 Q1024 NOSIG=
TAF LONG: LFPO 162300Z 1700/1806 08005KT CAVOK BECMG 1708/1710 17005KT
BECMG 1713/1715 29005KT BECMG 1803/1806 35005KT=